createdAt,value
2023-03-17T00:00:22.999Z,20
2023-03-17T00:02:56.558Z,16
2023-03-17T00:05:26.915Z,20
2023-03-17T00:08:00.110Z,16
2023-03-17T00:10:30.965Z,19
2023-03-17T00:13:02.560Z,16
2023-03-17T00:15:33.829Z,16
2023-03-17T00:18:04.169Z,20
2023-03-17T00:20:36.086Z,24
2023-03-17T00:23:06.451Z,25
2023-03-17T00:25:36.671Z,25
2023-03-17T00:28:07.257Z,25
2023-03-17T00:30:37.512Z,28
2023-03-17T00:33:10.261Z,28
2023-03-17T00:35:41.325Z,32
2023-03-17T00:38:11.641Z,28
2023-03-17T00:43:15.211Z,30
2023-03-17T00:45:45.375Z,32
2023-03-17T00:48:15.406Z,32
2023-03-17T00:50:45.843Z,32
2023-03-17T00:53:16.113Z,32
2023-03-17T00:55:47.524Z,32
2023-03-17T00:58:17.844Z,32
2023-03-17T01:00:50.007Z,32
2023-03-17T01:03:20.176Z,30
2023-03-17T01:05:50.759Z,32
2023-03-17T01:08:24.563Z,30
2023-03-17T01:10:55.451Z,32
2023-03-17T01:13:25.700Z,34
2023-03-17T01:15:57.116Z,32
2023-03-17T01:18:29.255Z,32
2023-03-17T01:20:59.896Z,28
2023-03-17T01:23:32.768Z,30
2023-03-17T01:26:03.210Z,28
2023-03-17T01:28:34.158Z,32
2023-03-17T01:31:04.813Z,32
2023-03-17T01:33:35.701Z,33
2023-03-17T01:36:06.312Z,32
2023-03-17T01:38:37.748Z,34
2023-03-17T01:41:08.118Z,33
2023-03-17T01:43:38.669Z,36
2023-03-17T01:46:09.591Z,30
2023-03-17T01:48:40.791Z,32
2023-03-17T01:51:11.357Z,32
2023-03-17T01:53:40.756Z,32
2023-03-17T01:56:11.748Z,28
2023-03-17T01:58:43.660Z,28
2023-03-17T02:01:13.075Z,28
2023-03-17T02:03:43.854Z,28
2023-03-17T02:06:14.933Z,26
2023-03-17T02:08:46.884Z,24
2023-03-17T02:11:17.693Z,28
2023-03-17T02:13:48.802Z,30
2023-03-17T02:16:19.543Z,31
2023-03-17T02:18:53.293Z,28
2023-03-17T02:21:25.257Z,24
2023-03-17T02:23:57.354Z,32
2023-03-17T02:26:28.370Z,32
2023-03-17T02:28:58.665Z,30
2023-03-17T02:31:30.660Z,36
2023-03-17T02:34:00.493Z,33
2023-03-17T02:36:32.554Z,32
2023-03-17T02:39:03.237Z,32
2023-03-17T02:41:34.191Z,28
2023-03-17T02:44:05.016Z,32
2023-03-17T02:46:35.652Z,29
2023-03-17T02:49:10.809Z,32
2023-03-17T02:51:42.882Z,32
2023-03-17T02:54:13.016Z,31
2023-03-17T02:56:43.646Z,29
2023-03-17T02:59:14.195Z,28
2023-03-17T03:01:45.113Z,32
2023-03-17T03:04:15.455Z,30
2023-03-17T03:06:45.940Z,32
2023-03-17T03:09:17.743Z,32
2023-03-17T03:11:48.461Z,32
2023-03-17T03:14:19.039Z,32
2023-03-17T03:16:49.905Z,29
2023-03-17T03:19:22.456Z,32
2023-03-17T03:21:53.607Z,32
2023-03-17T03:24:26.119Z,36
2023-03-17T03:26:56.998Z,33
2023-03-17T03:29:33.919Z,33
2023-03-17T03:32:04.445Z,33
2023-03-17T03:34:33.666Z,32
2023-03-17T03:37:03.927Z,32
2023-03-17T03:39:36.259Z,29
2023-03-17T03:42:11.187Z,33
2023-03-17T03:44:45.182Z,32
2023-03-17T03:47:15.423Z,32
2023-03-17T03:49:46.273Z,36
2023-03-17T03:52:17.178Z,32
2023-03-17T03:54:45.878Z,28
2023-03-17T03:57:16.516Z,28
2023-03-17T03:59:47.532Z,28
2023-03-17T04:02:18.420Z,28
2023-03-17T04:04:52.224Z,24
2023-03-17T04:07:22.336Z,27
2023-03-17T04:09:52.854Z,27
2023-03-17T04:12:27.584Z,32
2023-03-17T04:14:58.388Z,31
2023-03-17T04:17:29.094Z,28
2023-03-17T04:19:59.566Z,28
2023-03-17T04:22:32.314Z,28
2023-03-17T04:25:03.328Z,28
2023-03-17T04:27:33.373Z,23
2023-03-17T04:30:03.945Z,29
2023-03-17T04:32:34.339Z,33
2023-03-17T04:35:04.664Z,32
2023-03-17T04:37:35.588Z,32
2023-03-17T04:40:07.786Z,32
2023-03-17T04:42:37.953Z,36
2023-03-17T04:45:08.611Z,38
2023-03-17T04:47:39.342Z,39
2023-03-17T04:50:10.108Z,39
2023-03-17T04:52:41.115Z,36
2023-03-17T04:55:12.237Z,36
2023-03-17T04:57:43.464Z,32
2023-03-17T05:00:14.393Z,33
2023-03-17T05:02:47.040Z,34
2023-03-17T05:05:17.591Z,29
2023-03-17T05:07:49.998Z,31
2023-03-17T05:10:20.653Z,32
2023-03-17T05:12:52.431Z,28
2023-03-17T05:15:22.675Z,32
2023-03-17T05:17:53.328Z,34
2023-03-17T05:20:24.361Z,35
2023-03-17T05:22:54.721Z,36
2023-03-17T05:25:23.551Z,35
2023-03-17T05:27:53.785Z,32
2023-03-17T05:30:24.085Z,32
2023-03-17T05:32:53.359Z,32
2023-03-17T05:35:36.040Z,36
2023-03-17T05:38:06.685Z,36
2023-03-17T05:40:40.982Z,31
2023-03-17T05:43:11.746Z,28
2023-03-17T05:45:42.525Z,30
2023-03-17T05:48:13.710Z,28
2023-03-17T05:50:45.918Z,27
2023-03-17T05:53:16.536Z,28
2023-03-17T05:55:47.173Z,25
2023-03-17T05:58:22.129Z,28
2023-03-17T06:00:52.544Z,28
2023-03-17T06:03:26.333Z,26
2023-03-17T06:05:56.988Z,24
2023-03-17T06:08:29.682Z,24
2023-03-17T06:11:00.444Z,24
2023-03-17T06:13:33.642Z,24
2023-03-17T06:16:04.298Z,24
2023-03-17T06:18:34.944Z,24
2023-03-17T06:21:05.350Z,28
2023-03-17T06:23:40.049Z,28
2023-03-17T06:26:10.939Z,27
2023-03-17T06:28:45.372Z,24
2023-03-17T06:31:16.306Z,25
2023-03-17T06:33:47.932Z,28
2023-03-17T06:36:18.912Z,30
2023-03-17T06:38:49.728Z,24
2023-03-17T06:41:20.377Z,24
2023-03-17T06:43:51.492Z,24
2023-03-17T06:46:21.430Z,26
2023-03-17T06:48:51.748Z,28
2023-03-17T06:51:22.302Z,28
2023-03-17T06:56:30.423Z,24
2023-03-17T06:59:02.899Z,20
2023-03-17T07:01:35.598Z,24
2023-03-17T07:04:06.487Z,24
2023-03-17T07:06:40.826Z,28
2023-03-17T07:09:13.386Z,28
2023-03-17T07:11:43.765Z,28
2023-03-17T07:14:12.763Z,28
2023-03-17T07:16:49.538Z,29
2023-03-17T07:19:18.620Z,28
2023-03-17T07:21:49.122Z,25
2023-03-17T07:24:19.820Z,20
2023-03-17T07:26:51.826Z,25
2023-03-17T07:29:24.295Z,23
2023-03-17T07:31:54.693Z,23
2023-03-17T07:34:25.457Z,24
2023-03-17T07:36:56.702Z,24
2023-03-17T07:39:27.125Z,20
2023-03-17T07:41:57.556Z,24
2023-03-17T07:44:29.154Z,24
2023-03-17T07:46:59.584Z,28
2023-03-17T07:49:41.065Z,28
2023-03-17T07:52:11.930Z,28
2023-03-17T07:54:43.075Z,37
2023-03-17T07:57:12.454Z,28
2023-03-17T07:59:42.977Z,28
2023-03-17T08:02:13.401Z,28
2023-03-17T08:04:46.203Z,28
2023-03-17T08:07:16.551Z,28
2023-03-17T08:09:47.461Z,28
2023-03-17T08:12:18.153Z,28
2023-03-17T08:14:48.589Z,26
2023-03-17T08:17:26.381Z,27
2023-03-17T08:19:59.408Z,28
2023-03-17T08:22:31.044Z,36
2023-03-17T08:25:02.193Z,24
2023-03-17T08:27:34.542Z,24
2023-03-17T08:30:08.572Z,33
2023-03-17T08:32:39.256Z,28
2023-03-17T08:35:10.009Z,24
2023-03-17T08:37:40.135Z,26
2023-03-17T08:40:10.989Z,24
2023-03-17T08:42:41.448Z,28
2023-03-17T08:45:12.063Z,27
2023-03-17T08:47:42.882Z,24
2023-03-17T08:50:14.005Z,24
2023-03-17T08:52:43.243Z,24
2023-03-17T08:55:13.992Z,24
2023-03-17T08:57:44.822Z,24
2023-03-17T09:00:20.436Z,24
2023-03-17T09:02:51.243Z,24
2023-03-17T09:05:21.651Z,28
2023-03-17T09:07:54.450Z,24
2023-03-17T09:10:25.210Z,24
2023-03-17T09:12:57.325Z,24
2023-03-17T09:15:26.224Z,28
2023-03-17T09:17:56.415Z,24
2023-03-17T09:20:26.891Z,21
2023-03-17T09:22:57.485Z,24
2023-03-17T09:25:28.250Z,23
2023-03-17T09:27:58.887Z,24
2023-03-17T09:30:29.695Z,24
2023-03-17T09:33:03.787Z,24
2023-03-17T09:35:34.571Z,24
2023-03-17T09:38:13.722Z,21
2023-03-17T09:40:43.849Z,21
2023-03-17T09:43:21.181Z,28
2023-03-17T09:45:53.306Z,41
2023-03-17T09:48:24.961Z,59
2023-03-17T09:50:59.888Z,28
2023-03-17T09:53:31.568Z,24
2023-03-17T09:56:02.072Z,28
2023-03-17T09:58:32.259Z,20
2023-03-17T10:01:02.502Z,20
2023-03-17T10:03:35.133Z,24
2023-03-17T10:06:05.636Z,20
2023-03-17T10:08:35.809Z,21
2023-03-17T10:11:05.948Z,24
2023-03-17T10:13:36.355Z,24
2023-03-17T10:16:06.967Z,24
2023-03-17T10:18:38.831Z,24
2023-03-17T10:21:18.371Z,20
2023-03-17T10:23:48.505Z,20
2023-03-17T10:26:19.050Z,20
2023-03-17T10:28:49.368Z,20
2023-03-17T10:31:19.620Z,22
2023-03-17T10:33:49.958Z,20
2023-03-17T10:36:20.693Z,28
2023-03-17T10:38:52.355Z,16
2023-03-17T10:41:22.418Z,20
2023-03-17T10:43:52.581Z,20
2023-03-17T10:46:23.332Z,16
2023-03-17T10:48:53.512Z,15
2023-03-17T10:51:30.915Z,20
2023-03-17T10:54:01.280Z,16
2023-03-17T10:56:30.412Z,20
2023-03-17T10:59:00.983Z,16
2023-03-17T11:01:34.908Z,16
2023-03-17T11:04:05.291Z,16
2023-03-17T11:06:35.126Z,20
2023-03-17T11:09:06.515Z,12
2023-03-17T11:11:39.571Z,8
2023-03-17T11:14:08.486Z,11
2023-03-17T11:16:38.604Z,12
2023-03-17T11:19:07.553Z,12
2023-03-17T11:21:37.794Z,15
2023-03-17T11:24:08.250Z,13
2023-03-17T11:26:38.934Z,13
2023-03-17T11:29:09.094Z,19
2023-03-17T11:31:39.412Z,16
2023-03-17T11:34:10.178Z,20
2023-03-17T11:36:40.865Z,8
2023-03-17T11:39:13.356Z,12
2023-03-17T11:41:43.694Z,12
2023-03-17T11:44:19.305Z,10
2023-03-17T11:46:49.997Z,9
2023-03-17T11:49:19.959Z,8
2023-03-17T11:51:54.650Z,8
2023-03-17T11:54:23.928Z,8
2023-03-17T11:56:54.512Z,8
2023-03-17T11:59:25.158Z,8
2023-03-17T12:01:55.727Z,10
2023-03-17T12:04:26.080Z,12
2023-03-17T12:06:59.042Z,13
2023-03-17T12:09:29.366Z,9
2023-03-17T12:12:00.854Z,10
2023-03-17T12:14:32.871Z,90
2023-03-17T12:17:06.354Z,26
2023-03-17T12:19:37.521Z,14
2023-03-17T12:22:08.912Z,12
2023-03-17T12:24:42.958Z,12
2023-03-17T12:27:13.542Z,12
2023-03-17T12:29:45.190Z,11
2023-03-17T12:32:15.225Z,9
2023-03-17T12:34:45.376Z,16
2023-03-17T12:37:15.642Z,12
2023-03-17T12:39:44.865Z,9
2023-03-17T12:42:24.632Z,12
2023-03-17T12:44:57.761Z,12
2023-03-17T12:47:29.002Z,12
2023-03-17T12:49:59.231Z,12
2023-03-17T12:52:30.254Z,8
2023-03-17T12:55:02.281Z,11
2023-03-17T12:57:32.904Z,10
2023-03-17T13:00:06.879Z,8
2023-03-17T13:02:41.398Z,14
2023-03-17T13:05:12.459Z,12
2023-03-17T13:07:47.142Z,16
2023-03-17T13:10:17.999Z,20
2023-03-17T13:12:48.403Z,13
2023-03-17T13:15:19.475Z,12
2023-03-17T13:17:50.313Z,12
2023-03-17T13:20:23.001Z,12
2023-03-17T13:22:58.618Z,12
2023-03-17T13:25:29.399Z,8
2023-03-17T13:27:59.289Z,8
2023-03-17T13:30:30.460Z,11
2023-03-17T13:33:07.827Z,12
2023-03-17T13:35:39.558Z,16
2023-03-17T13:38:17.057Z,12
2023-03-17T13:40:53.716Z,10
2023-03-17T13:43:24.249Z,10
2023-03-17T13:45:55.669Z,12
2023-03-17T13:48:26.111Z,9
2023-03-17T13:50:59.526Z,12
2023-03-17T13:53:29.724Z,9
2023-03-17T13:56:00.747Z,8
2023-03-17T13:58:31.254Z,12
2023-03-17T14:01:02.109Z,10
2023-03-17T14:03:32.832Z,8
2023-03-17T14:06:07.373Z,16
2023-03-17T14:08:40.170Z,12
2023-03-17T14:11:10.580Z,8
2023-03-17T14:13:41.255Z,10
2023-03-17T14:16:11.827Z,13
2023-03-17T14:18:45.707Z,8
2023-03-17T14:21:16.184Z,8
2023-03-17T14:23:50.424Z,8
2023-03-17T14:26:21.191Z,12
2023-03-17T14:28:51.914Z,8
2023-03-17T14:31:21.736Z,12
2023-03-17T14:33:52.571Z,8
2023-03-17T14:36:23.328Z,16
2023-03-17T14:38:59.397Z,10
2023-03-17T14:41:32.852Z,20
2023-03-17T14:44:03.553Z,8
2023-03-17T14:46:33.609Z,12
2023-03-17T14:49:03.492Z,8
2023-03-17T14:51:33.821Z,8
2023-03-17T14:54:04.236Z,8
2023-03-17T14:56:34.366Z,8
2023-03-17T14:59:07.006Z,15
2023-03-17T15:01:37.263Z,8
2023-03-17T15:04:07.299Z,8
2023-03-17T15:06:38.619Z,20
2023-03-17T15:09:08.687Z,23
2023-03-17T15:11:38.992Z,36
2023-03-17T15:14:09.451Z,20
2023-03-17T15:16:39.891Z,32
2023-03-17T15:19:10.093Z,36
2023-03-17T15:21:41.821Z,32
2023-03-17T15:24:12.314Z,32
2023-03-17T15:26:43.744Z,16
2023-03-17T15:29:15.118Z,22
2023-03-17T15:31:45.549Z,52
2023-03-17T15:34:16.206Z,32
2023-03-17T15:36:46.656Z,23
2023-03-17T15:39:17.106Z,24
2023-03-17T15:41:47.826Z,20
2023-03-17T15:44:18.600Z,24
2023-03-17T15:46:48.633Z,20
2023-03-17T15:49:19.826Z,18
2023-03-17T15:51:49.966Z,19
2023-03-17T15:54:21.108Z,12
2023-03-17T15:56:51.312Z,20
2023-03-17T15:59:21.917Z,12
2023-03-17T16:01:52.897Z,12
2023-03-17T16:04:23.423Z,16
2023-03-17T16:06:55.591Z,12
2023-03-17T16:09:26.962Z,35
2023-03-17T16:12:09.707Z,28
2023-03-17T16:14:40.006Z,21
2023-03-17T16:17:09.946Z,16
2023-03-17T16:19:38.733Z,17
2023-03-17T16:22:09.607Z,16
2023-03-17T16:24:46.514Z,18
2023-03-17T16:27:17.345Z,20
2023-03-17T16:29:49.108Z,10
2023-03-17T16:32:19.445Z,17
2023-03-17T16:34:49.601Z,28
2023-03-17T16:37:22.349Z,28
2023-03-17T16:39:57.149Z,25
2023-03-17T16:42:27.368Z,20
2023-03-17T16:44:57.723Z,20
2023-03-17T16:47:28.117Z,15
2023-03-17T16:49:59.413Z,15
2023-03-17T16:52:29.638Z,16
2023-03-17T16:54:59.796Z,17
2023-03-17T16:57:34.671Z,8
2023-03-17T17:00:05.849Z,12
2023-03-17T17:02:39.620Z,12
2023-03-17T17:05:09.729Z,8
2023-03-17T17:07:44.166Z,16
2023-03-17T17:10:14.207Z,8
2023-03-17T17:12:44.424Z,9
2023-03-17T17:15:15.868Z,12
2023-03-17T17:17:46.526Z,8
2023-03-17T17:20:18.386Z,12
2023-03-17T17:22:48.603Z,10
2023-03-17T17:25:19.303Z,8
2023-03-17T17:27:49.725Z,8
2023-03-17T17:30:19.940Z,8
2023-03-17T17:32:50.163Z,12
2023-03-17T17:35:20.205Z,28
2023-03-17T17:37:54.111Z,32
2023-03-17T17:40:24.703Z,32
2023-03-17T17:42:54.896Z,28
2023-03-17T17:45:25.661Z,17
2023-03-17T17:47:56.472Z,16
2023-03-17T17:50:26.849Z,24
2023-03-17T17:52:57.346Z,29
2023-03-17T17:55:38.658Z,28
2023-03-17T17:58:08.624Z,28
2023-03-17T18:00:39.112Z,32
2023-03-17T18:03:19.113Z,32
2023-03-17T18:05:49.584Z,44
2023-03-17T18:08:19.706Z,48
2023-03-17T18:10:52.065Z,49
2023-03-17T18:13:20.391Z,44
2023-03-17T18:15:50.674Z,40
2023-03-17T18:18:21.931Z,40
2023-03-17T18:20:52.208Z,47
2023-03-17T18:23:26.036Z,51
2023-03-17T18:26:00.803Z,77
2023-03-17T18:28:31.617Z,85
2023-03-17T18:31:02.305Z,83
2023-03-17T18:33:32.635Z,79
2023-03-17T18:36:03.220Z,68
2023-03-17T18:38:35.541Z,62
2023-03-17T18:41:06.415Z,68
2023-03-17T18:43:36.806Z,66
2023-03-17T18:46:11.549Z,70
2023-03-17T18:51:18.086Z,73
2023-03-17T18:53:48.362Z,75
2023-03-17T18:56:19.997Z,68
2023-03-17T18:58:54.103Z,64
2023-03-17T19:01:24.375Z,72
2023-03-17T19:03:54.613Z,68
2023-03-17T19:06:24.905Z,65
2023-03-17T19:08:57.064Z,73
2023-03-17T19:11:27.943Z,78
2023-03-17T19:13:58.253Z,81
2023-03-17T19:16:29.954Z,88
2023-03-17T19:19:01.253Z,83
2023-03-17T19:21:32.088Z,88
2023-03-17T19:24:04.617Z,92
2023-03-17T19:26:35.001Z,76
2023-03-17T19:29:06.113Z,73
2023-03-17T19:31:36.434Z,76
2023-03-17T19:34:06.884Z,79
2023-03-17T19:36:36.912Z,82
2023-03-17T19:39:17.378Z,81
2023-03-17T19:41:47.548Z,83
2023-03-17T19:44:17.811Z,80
2023-03-17T19:46:46.846Z,77
2023-03-17T19:49:16.836Z,80
2023-03-17T19:51:47.270Z,69
2023-03-17T19:54:17.688Z,72
2023-03-17T19:56:48.042Z,79
2023-03-17T19:59:18.457Z,71
2023-03-17T20:01:48.774Z,70
2023-03-17T20:04:18.993Z,76
2023-03-17T20:06:49.185Z,76
2023-03-17T20:09:19.582Z,76
2023-03-17T20:11:49.699Z,72
2023-03-17T20:14:20.133Z,87
2023-03-17T20:16:50.219Z,74
2023-03-17T20:19:20.456Z,71
2023-03-17T20:21:50.909Z,74
2023-03-17T20:24:24.200Z,78
2023-03-17T20:26:53.993Z,69
2023-03-17T20:29:24.427Z,76
2023-03-17T20:31:54.570Z,72
2023-03-17T20:34:24.771Z,72
2023-03-17T20:36:54.968Z,68
2023-03-17T20:39:25.244Z,65
2023-03-17T20:41:55.646Z,68
2023-03-17T20:44:25.736Z,65
2023-03-17T20:46:55.937Z,60
2023-03-17T20:49:26.173Z,66
2023-03-17T20:51:56.299Z,67
2023-03-17T20:54:26.567Z,69
2023-03-17T20:56:57.365Z,68
2023-03-17T20:59:28.370Z,64
2023-03-17T21:01:58.547Z,64
2023-03-17T21:04:28.981Z,63
2023-03-17T21:06:58.789Z,61
2023-03-17T21:09:29.234Z,58
2023-03-17T21:11:59.576Z,60
2023-03-17T21:14:29.573Z,57
2023-03-17T21:16:59.696Z,60
2023-03-17T21:19:31.015Z,56
2023-03-17T21:22:01.239Z,54
2023-03-17T21:24:31.549Z,56
2023-03-17T21:27:02.274Z,60
2023-03-17T21:29:32.286Z,57
2023-03-17T21:32:02.446Z,54
2023-03-17T21:34:32.583Z,54
2023-03-17T21:37:02.932Z,56
2023-03-17T21:39:33.026Z,64
2023-03-17T21:42:03.222Z,56
2023-03-17T21:44:33.873Z,62
2023-03-17T21:47:04.062Z,63
2023-03-17T21:49:34.560Z,62
2023-03-17T21:52:04.690Z,59
2023-03-17T21:54:35.301Z,60
2023-03-17T21:57:05.944Z,67
2023-03-17T21:59:36.244Z,64
2023-03-17T22:02:10.127Z,62
2023-03-17T22:04:40.194Z,60
2023-03-17T22:07:10.872Z,64
2023-03-17T22:09:41.507Z,60
2023-03-17T22:12:12.410Z,64
2023-03-17T22:14:42.422Z,64
2023-03-17T22:17:12.979Z,63
2023-03-17T22:19:43.090Z,60
2023-03-17T22:22:14.049Z,64
2023-03-17T22:24:46.140Z,64
2023-03-17T22:27:16.597Z,62
2023-03-17T22:29:47.538Z,64
2023-03-17T22:32:17.810Z,62
2023-03-17T22:34:48.303Z,60
2023-03-17T22:37:18.914Z,57
2023-03-17T22:39:51.449Z,60
2023-03-17T22:42:21.821Z,56
2023-03-17T22:44:52.512Z,57
2023-03-17T22:47:23.302Z,60
2023-03-17T22:49:53.671Z,64
2023-03-17T22:52:23.575Z,56
2023-03-17T22:54:53.929Z,62
2023-03-17T22:57:25.931Z,63
2023-03-17T22:59:56.248Z,68
2023-03-17T23:02:27.306Z,64
2023-03-17T23:04:58.040Z,57
2023-03-17T23:07:29.242Z,66
2023-03-17T23:09:59.662Z,79
2023-03-17T23:12:30.134Z,68
2023-03-17T23:15:01.173Z,71
2023-03-17T23:17:31.578Z,68
2023-03-17T23:20:02.055Z,66
2023-03-17T23:22:32.943Z,67
2023-03-17T23:25:03.295Z,73
2023-03-17T23:27:34.240Z,72
2023-03-17T23:30:04.249Z,74
2023-03-17T23:32:34.692Z,70
2023-03-17T23:35:05.148Z,68
2023-03-17T23:37:36.724Z,68
2023-03-17T23:40:07.787Z,76
2023-03-17T23:42:38.469Z,73
2023-03-17T23:45:09.050Z,81
2023-03-17T23:47:39.503Z,72
2023-03-17T23:50:10.379Z,72
2023-03-17T23:52:39.182Z,73
2023-03-17T23:55:09.447Z,72
2023-03-17T23:57:39.888Z,65
